Time;durP1;ratioP1;P1;durP2;ratioP2;P2;SDS_P1;SDS_P2;PMS_P1;PMS_P2;Temp;Humidity;BMP_temperature;BMP_pressure;BME280_temperature;BME280_humidity;BME280_pressure;Samples;Min_cycle;Max_cycle;Signal;HPM_P1;HPM_P2
2023/06/01 00:01:42;;;;;;;21.93;13.67;;;;;;;11.89;100.00;102405.38;5044661;28;20040;-73
2023/06/01 00:04:08;;;;;;;26.27;14.10;;;;;;;11.89;100.00;102410.88;5051941;28;20063;-73
2023/06/01 00:06:34;;;;;;;25.00;13.33;;;;;;;11.83;100.00;102399.69;5045370;28;20029;-73
2023/06/01 00:08:59;;;;;;;22.67;13.50;;;;;;;11.84;100.00;102406.94;5041335;28;20033;-73
2023/06/01 00:11:25;;;;;;;23.53;13.80;;;;;;;11.79;100.00;102398.34;5041398;28;20044;-74
2023/06/01 00:13:52;;;;;;;22.00;13.60;;;;;;;11.79;100.00;102403.81;5040154;28;20029;-72
2023/06/01 00:16:17;;;;;;;23.52;12.90;;;;;;;11.82;100.00;102398.84;5042085;28;20294;-72
2023/06/01 00:18:43;;;;;;;28.17;14.07;;;;;;;11.84;100.00;102395.94;5042281;28;20024;-72
2023/06/01 00:21:09;;;;;;;26.73;13.97;;;;;;;11.77;100.00;102394.88;5040720;28;20060;-71
2023/06/01 00:23:35;;;;;;;27.03;14.43;;;;;;;11.83;100.00;102394.19;5041591;28;20480;-71
2023/06/01 00:26:01;;;;;;;24.47;12.20;;;;;;;11.85;100.00;102390.25;5042380;28;20112;-71
2023/06/01 00:28:27;;;;;;;25.10;14.13;;;;;;;11.83;100.00;102394.19;5041033;28;20056;-72
2023/06/01 00:30:53;;;;;;;26.00;13.17;;;;;;;11.80;100.00;102392.66;5041706;28;20522;-71
2023/06/01 00:33:22;;;;;;;21.27;14.13;;;;;;;11.80;100.00;102387.16;5037722;28;20018;-71
2023/06/01 00:35:47;;;;;;;26.38;12.85;;;;;;;11.82;100.00;102392.50;5042640;28;20116;-72
2023/06/01 00:38:13;;;;;;;21.57;13.83;;;;;;;11.86;100.00;102383.75;5039386;28;20033;-71
2023/06/01 00:40:38;;;;;;;19.47;13.90;;;;;;;11.85;100.00;102386.69;5038202;28;20099;-71
2023/06/01 00:43:04;;;;;;;26.87;14.00;;;;;;;11.83;100.00;102395.06;5045417;28;20025;-72
2023/06/01 00:45:30;;;;;;;27.83;13.10;;;;;;;11.85;100.00;102392.16;5040755;28;20465;-71
2023/06/01 00:47:57;;;;;;;27.70;13.55;;;;;;;11.80;100.00;102392.66;5039254;28;20032;-72
2023/06/01 00:50:23;;;;;;;27.80;13.57;;;;;;;11.82;100.00;102378.75;5040418;28;20037;-72
2023/06/01 00:52:51;;;;;;;23.30;13.93;;;;;;;11.87;100.00;102390.97;5043274;28;20047;-72
2023/06/01 00:55:16;;;;;;;23.10;12.95;;;;;;;11.72;100.00;102389.03;5041483;28;20488;-71
2023/06/01 00:57:43;;;;;;;25.30;13.67;;;;;;;11.73;100.00;102396.22;5039043;28;20020;-71
2023/06/01 01:00:14;;;;;;;20.05;12.60;;;;;;;11.65;100.00;102382.50;5039619;28;20026;-73
2023/06/01 01:02:41;;;;;;;22.77;12.90;;;;;;;11.69;100.00;102400.34;5038757;28;20100;-72
2023/06/01 01:05:11;;;;;;;22.65;13.35;;;;;;;11.69;100.00;102394.88;5034328;28;20037;-72
2023/06/01 01:07:55;;;;;;;20.08;13.38;;;;;;;11.67;100.00;102384.03;5036099;28;20037;-72
2023/06/01 01:10:36;;;;;;;21.60;13.18;;;;;;;11.69;100.00;102392.97;5038280;28;20055;-72
2023/06/01 01:13:18;;;;;;;24.98;12.25;;;;;;;11.68;100.00;102390.41;5039211;28;20426;-72
2023/06/01 01:15:51;;;;;;;20.55;11.10;;;;;;;11.71;100.00;102401.91;5043158;28;20029;-71
2023/06/01 01:18:24;;;;;;;17.15;12.10;;;;;;;11.71;100.00;102395.56;5037791;28;20095;-72
2023/06/01 01:20:58;;;;;;;19.75;10.55;;;;;;;11.71;100.00;102401.03;5042319;28;20040;-72
2023/06/01 01:23:26;;;;;;;21.50;11.20;;;;;;;11.69;100.00;102394.88;5038578;28;20080;-71
2023/06/01 01:26:05;;;;;;;20.05;11.45;;;;;;;11.78;100.00;102391.09;5036443;28;20475;-72
2023/06/01 01:28:45;;;;;;;22.35;11.95;;;;;;;11.86;100.00;102391.97;5048110;28;20035;-72
2023/06/01 01:31:18;;;;;;;24.90;11.52;;;;;;;11.91;100.00;102381.34;5035531;28;20373;-72
2023/06/01 01:33:46;;;;;;;21.83;11.68;;;;;;;11.96;100.00;102400.09;5037177;28;20068;-70
2023/06/01 01:36:12;;;;;;;23.25;12.80;;;;;;;11.82;100.00;102392.50;5041481;28;20111;-71
2023/06/01 01:38:38;;;;;;;21.63;13.00;;;;;;;11.80;100.00;102394.56;5033977;28;20021;-71
2023/06/01 01:41:04;;;;;;;22.37;13.43;;;;;;;11.80;100.00;102391.81;5040158;28;20094;-71
2023/06/01 01:43:30;;;;;;;18.43;12.60;;;;;;;11.84;100.00;102393.19;5040863;28;20266;-72
2023/06/01 01:46:32;;;;;;;23.00;12.38;;;;;;;11.85;100.00;102404.00;5037553;28;20274;-72
2023/06/01 01:49:19;;;;;;;22.92;12.40;;;;;;;11.80;100.00;102400.06;5042185;28;20466;-72
2023/06/01 01:51:50;;;;;;;23.80;11.50;;;;;;;11.79;100.00;102398.34;5053516;28;20116;-72
2023/06/01 01:54:17;;;;;;;21.35;12.45;;;;;;;11.72;100.00;102402.75;5041361;28;20301;-72
2023/06/01 01:56:42;;;;;;;;;;;;;;;11.76;100.00;102394.03;5046308;28;20127;-72
2023/06/01 01:59:10;;;;;;;17.63;11.13;;;;;;;11.80;100.00;102394.56;5041947;28;19916;-71
2023/06/01 02:01:37;;;;;;;22.67;12.45;;;;;;;11.75;100.00;102397.78;5036403;28;20057;-72
2023/06/01 02:04:04;;;;;;;21.58;12.07;;;;;;;11.74;100.00;102396.06;5040941;28;20026;-72
2023/06/01 02:06:30;;;;;;;;;;;;;;;11.71;100.00;102390.06;5040040;28;20038;-72
2023/06/01 02:08:56;;;;;;;23.00;11.05;;;;;;;11.69;100.00;102390.22;5056306;28;19924;-72
2023/06/01 02:11:21;;;;;;;21.03;10.37;;;;;;;11.72;100.00;102384.41;5038826;28;20037;-72
2023/06/01 02:13:47;;;;;;;17.50;10.57;;;;;;;11.66;100.00;102385.06;5038494;28;20026;-72
2023/06/01 02:16:13;;;;;;;18.27;9.80;;;;;;;11.61;100.00;102395.69;5041021;28;20033;-72
2023/06/01 02:18:39;;;;;;;23.13;11.23;;;;;;;11.57;100.00;102388.78;5033406;28;20037;-71
2023/06/01 02:21:08;;;;;;;19.47;11.23;;;;;;;11.55;100.00;102379.00;5036855;28;20385;-72
2023/06/01 02:23:34;;;;;;;17.45;10.00;;;;;;;11.53;100.00;102386.53;5037095;28;20060;-72
2023/06/01 02:26:00;;;;;;;13.20;9.85;;;;;;;11.58;100.00;102378.69;5046976;28;20029;-72
2023/06/01 02:28:25;;;;;;;18.27;10.18;;;;;;;11.55;100.00;102377.13;5045599;28;20525;-72
2023/06/01 02:30:51;;;;;;;13.87;10.00;;;;;;;11.63;100.00;102379.06;5037686;28;20053;-73
2023/06/01 02:33:17;;;;;;;17.52;10.10;;;;;;;11.60;100.00;102366.53;5042200;28;20029;-72
2023/06/01 02:35:42;;;;;;;15.97;9.67;;;;;;;11.69;100.00;102370.16;5046817;28;20037;-72
2023/06/01 02:38:08;;;;;;;20.53;10.23;;;;;;;11.70;100.00;102375.47;5039533;28;20676;-73
2023/06/01 02:40:33;;;;;;;24.13;10.30;;;;;;;11.63;100.00;102370.84;5042604;28;20393;-73
2023/06/01 02:42:58;;;;;;;19.87;10.03;;;;;;;11.63;100.00;102370.84;5044168;28;20053;-72
2023/06/01 02:45:24;;;;;;;17.33;10.17;;;;;;;11.53;100.00;102370.91;5043207;28;20175;-72
2023/06/01 02:47:52;;;;;;;21.70;10.37;;;;;;;11.53;100.00;102359.94;5042308;28;20027;-73
2023/06/01 02:50:18;;;;;;;17.20;10.25;;;;;;;11.62;100.00;102361.72;5041958;28;20041;-73
2023/06/01 02:52:43;;;;;;;14.47;9.50;;;;;;;11.62;100.00;102369.09;5040986;28;20485;-73
2023/06/01 02:55:09;;;;;;;19.50;9.37;;;;;;;11.65;100.00;102377.00;5034028;28;20041;-72
2023/06/01 02:57:34;;;;;;;16.80;10.20;;;;;;;11.55;100.00;102365.28;5047126;28;20036;-73
2023/06/01 03:00:01;;;;;;;20.00;9.90;;;;;;;11.65;100.00;102374.25;5047086;28;20426;-72
2023/06/01 03:02:27;;;;;;;22.73;9.88;;;;;;;11.65;100.00;102366.03;5041597;28;20056;-73
2023/06/01 03:04:53;;;;;;;19.33;10.43;;;;;;;11.56;100.00;102375.22;5038698;28;20027;-73
2023/06/01 03:07:18;;;;;;;23.50;10.90;;;;;;;11.52;100.00;102371.09;5038802;28;20373;-73
2023/06/01 03:09:44;;;;;;;18.27;9.97;;;;;;;11.52;100.00;102376.59;5038212;28;20025;-73
2023/06/01 03:12:10;;;;;;;24.63;10.33;;;;;;;11.55;100.00;102368.88;5040876;28;20519;-73
2023/06/01 03:14:35;;;;;;;24.17;10.33;;;;;;;11.56;100.00;102370.59;5040226;28;20025;-72
2023/06/01 03:17:01;;;;;;;22.10;9.87;;;;;;;11.56;100.00;102369.72;5037475;28;20069;-73
2023/06/01 03:19:26;;;;;;;20.37;10.47;;;;;;;11.64;100.00;102370.66;5041111;28;20044;-73
2023/06/01 03:21:52;;;;;;;17.98;9.23;;;;;;;11.69;100.00;102381.97;5039702;28;20496;-73
2023/06/01 03:24:18;;;;;;;18.13;10.03;;;;;;;11.66;100.00;102378.72;5035994;28;20017;-73
2023/06/01 03:26:43;;;;;;;17.03;10.30;;;;;;;11.54;100.00;102377.28;5045195;28;20024;-73
2023/06/01 03:29:09;;;;;;;20.50;9.98;;;;;;;11.58;100.00;102379.50;5037943;28;20040;-73
2023/06/01 03:31:34;;;;;;;24.80;10.77;;;;;;;11.52;100.00;102376.59;5037578;28;20094;-73
2023/06/01 03:34:01;;;;;;;21.83;9.57;;;;;;;11.54;100.00;102372.63;5041866;28;20025;-74
2023/06/01 03:36:27;;;;;;;20.98;10.88;;;;;;;11.60;100.00;102382.13;5040373;28;20500;-73
2023/06/01 03:38:53;;;;;;;18.50;10.75;;;;;;;11.62;100.00;102363.59;5041967;28;20040;-73
2023/06/01 03:41:18;;;;;;;25.90;10.83;;;;;;;11.55;100.00;102376.25;5039422;28;20029;-73
2023/06/01 03:43:44;;;;;;;14.83;10.47;;;;;;;11.59;100.00;102374.94;5075239;28;20116;-73
2023/06/01 03:46:11;;;;;;;17.90;10.13;;;;;;;11.53;100.00;102375.56;5043366;28;20021;-73
2023/06/01 03:48:36;;;;;;;20.27;9.88;;;;;;;11.59;100.00;102377.69;5037542;28;20390;-73
2023/06/01 03:51:02;;;;;;;24.10;10.87;;;;;;;11.57;100.00;102377.81;5036834;28;20095;-73
2023/06/01 03:53:27;;;;;;;20.33;10.07;;;;;;;11.64;100.00;102380.78;5038642;28;20127;-74
2023/06/01 03:55:54;;;;;;;15.53;9.63;;;;;;;11.57;100.00;102377.81;5041016;28;20033;-73
2023/06/01 03:58:20;;;;;;;20.63;9.88;;;;;;;11.44;100.00;102374.69;5043060;28;20273;-73
2023/06/01 04:00:46;;;;;;;21.40;9.57;;;;;;;11.52;100.00;102376.59;5037922;28;20508;-73
2023/06/01 04:03:12;;;;;;;21.23;10.15;;;;;;;11.55;100.00;102379.88;5044117;28;20100;-73
2023/06/01 04:05:37;;;;;;;14.87;9.33;;;;;;;11.68;100.00;102384.91;5041698;28;20044;-73
2023/06/01 04:08:03;;;;;;;19.57;10.30;;;;;;;11.63;100.00;102388.16;5038357;28;20404;-73
2023/06/01 04:10:28;;;;;;;18.13;9.70;;;;;;;11.58;100.00;102386.91;5036699;28;20119;-73
2023/06/01 04:12:54;;;;;;;19.33;10.07;;;;;;;11.65;100.00;102379.75;5040659;28;20037;-73
2023/06/01 04:15:20;;;;;;;21.57;9.37;;;;;;;11.79;100.00;102379.13;5037773;28;20025;-73
2023/06/01 04:17:46;;;;;;;17.45;9.35;;;;;;;11.76;100.00;102377.56;5043368;28;20033;-73
2023/06/01 04:20:14;;;;;;;25.73;9.63;;;;;;;11.74;100.00;102379.59;5043766;28;20147;-73
2023/06/01 04:22:41;;;;;;;25.50;10.27;;;;;;;11.70;100.00;102380.09;5041462;28;20025;-73
2023/06/01 04:25:16;;;;;;;;;;;;;;;11.77;100.00;102384.78;5042920;28;20043;-74
2023/06/01 04:27:47;;;;;;;21.40;9.82;;;;;;;11.70;100.00;102377.38;5040704;28;19913;-73
2023/06/01 04:30:15;;;;;;;17.23;9.73;;;;;;;11.72;100.00;102381.66;5038994;28;20029;-74
2023/06/01 04:32:43;;;;;;;16.75;10.23;;;;;;;11.72;100.00;102389.91;5038905;28;20442;-73
2023/06/01 04:35:11;;;;;;;24.50;10.13;;;;;;;11.76;100.00;102388.53;5040122;28;20365;-73
2023/06/01 04:37:39;;;;;;;18.42;10.15;;;;;;;11.67;100.00;102381.31;5040831;28;20025;-74
2023/06/01 04:40:07;;;;;;;20.80;9.60;;;;;;;11.76;100.00;102393.16;5042107;28;20108;-73
2023/06/01 04:42:34;;;;;;;19.77;9.75;;;;;;;11.80;100.00;102383.56;5041998;28;20120;-74
2023/06/01 04:45:00;;;;;;;16.40;10.10;;;;;;;11.85;100.00;102389.41;5037228;28;20040;-74
2023/06/01 04:47:26;;;;;;;25.13;10.37;;;;;;;11.83;100.00;102389.59;5039185;28;20040;-72
2023/06/01 04:49:52;;;;;;;20.23;9.13;;;;;;;11.87;100.00;102387.34;5039661;28;20374;-72
2023/06/01 04:52:19;;;;;;;17.35;9.38;;;;;;;11.91;100.00;102386.84;5039664;28;20051;-74
2023/06/01 04:54:45;;;;;;;19.13;9.52;;;;;;;11.93;100.00;102378.44;5041373;28;20029;-73
2023/06/01 04:57:13;;;;;;;18.08;9.50;;;;;;;11.99;100.00;102394.25;5036703;28;20112;-73
2023/06/01 04:59:41;;;;;;;21.65;9.77;;;;;;;11.94;99.99;102391.13;5031958;28;21445;-73
2023/06/01 05:02:06;;;;;;;24.73;9.15;;;;;;;12.02;100.00;102399.41;5032447;28;20499;-73
2023/06/01 05:04:32;;;;;;;18.67;9.77;;;;;;;12.09;98.99;102390.31;5036787;28;20104;-73
2023/06/01 05:06:57;;;;;;;21.00;9.40;;;;;;;12.15;99.27;102384.16;5031791;28;20159;-73
2023/06/01 05:09:23;;;;;;;25.73;10.30;;;;;;;12.09;99.02;102383.97;5035970;28;20028;-72
2023/06/01 05:11:48;;;;;;;18.87;9.40;;;;;;;12.10;98.69;102392.03;5039022;28;20488;-73
2023/06/01 05:14:14;;;;;;;21.47;8.87;;;;;;;12.08;98.92;102395.97;5038106;28;20087;-72
2023/06/01 05:16:40;;;;;;;21.10;9.73;;;;;;;12.15;99.04;102400.63;5036936;28;20029;-73
2023/06/01 05:19:05;;;;;;;16.73;9.00;;;;;;;12.17;98.57;102394.97;5038482;28;20047;-73
2023/06/01 05:21:33;;;;;;;20.93;10.30;;;;;;;12.36;97.93;102401.00;5037783;28;20032;-73
2023/06/01 05:23:59;;;;;;;22.63;10.32;;;;;;;12.23;97.80;102397.03;5037833;28;20131;-73
2023/06/01 05:26:25;;;;;;;16.83;8.30;;;;;;;12.18;98.46;102399.44;5039046;28;20105;-73
2023/06/01 05:28:50;;;;;;;13.67;8.77;;;;;;;12.21;98.35;102396.34;5037900;28;20536;-73
2023/06/01 05:31:16;;;;;;;23.07;10.13;;;;;;;12.27;97.72;102392.94;5034074;28;20061;-73
2023/06/01 05:33:41;;;;;;;23.93;9.23;;;;;;;12.36;97.77;102398.25;5040830;28;20053;-73
2023/06/01 05:36:07;;;;;;;16.70;8.53;;;;;;;12.36;96.80;102392.75;5035006;28;20029;-73
2023/06/01 05:38:32;;;;;;;26.00;9.60;;;;;;;12.53;96.52;102396.34;5043669;28;20086;-73
2023/06/01 05:40:58;;;;;;;25.00;9.77;;;;;;;12.49;97.24;102393.09;5030763;28;20112;-72
2023/06/01 05:43:23;;;;;;;21.43;9.33;;;;;;;12.55;96.91;102386.06;5039174;28;20473;-72
2023/06/01 05:45:49;;;;;;;19.70;9.30;;;;;;;12.55;95.77;102391.56;5039617;28;20025;-73
2023/06/01 05:48:14;;;;;;;22.33;9.57;;;;;;;12.69;95.79;102396.34;5038640;28;20104;-73
2023/06/01 05:50:41;;;;;;;18.47;9.20;;;;;;;12.65;95.23;102403.25;5038748;28;20037;-72
2023/06/01 05:53:07;;;;;;;23.13;9.98;;;;;;;12.67;95.00;102402.03;5039555;28;20069;-73
2023/06/01 05:55:33;;;;;;;26.30;9.93;;;;;;;12.75;95.28;102399.25;5042360;28;20040;-72
2023/06/01 05:57:58;;;;;;;25.27;10.03;;;;;;;12.76;94.53;102397.38;5039844;28;20037;-74
2023/06/01 06:00:24;;;;;;;15.00;8.80;;;;;;;12.76;95.04;102411.13;5037470;28;20122;-72
2023/06/01 06:02:50;;;;;;;21.40;10.03;;;;;;;12.81;94.59;102401.31;5042803;28;20048;-71
2023/06/01 06:05:15;;;;;;;19.77;9.60;;;;;;;12.77;95.17;102399.97;5036199;28;20115;-72
2023/06/01 06:07:41;;;;;;;18.07;9.77;;;;;;;12.84;95.13;102392.72;5040956;28;20017;-72
2023/06/01 06:10:07;;;;;;;24.63;9.73;;;;;;;12.87;94.89;102391.53;5039461;28;20082;-73
2023/06/01 06:12:32;;;;;;;23.27;9.83;;;;;;;12.98;94.44;102396.69;5038753;28;20064;-72
2023/06/01 06:14:58;;;;;;;28.03;10.10;;;;;;;12.98;94.55;102389.28;5037313;28;20032;-73
2023/06/01 06:17:23;;;;;;;22.97;9.57;;;;;;;13.12;94.51;102383.06;5046764;28;20032;-73
2023/06/01 06:19:49;;;;;;;19.97;9.97;;;;;;;13.15;93.88;102390.09;5069583;28;20642;-72
2023/06/01 06:22:15;;;;;;;16.83;8.83;;;;;;;13.30;93.54;102380.09;5030927;28;20083;-73
2023/06/01 06:24:41;;;;;;;23.80;10.13;;;;;;;13.35;92.91;102389.50;5037739;28;20086;-73
2023/06/01 06:27:08;;;;;;;19.33;9.55;;;;;;;13.43;93.15;102385.88;5036092;28;20025;-73
2023/06/01 06:29:33;;;;;;;15.93;9.10;;;;;;;13.41;92.61;102385.22;5031427;28;20038;-74
2023/06/01 06:31:59;;;;;;;16.80;9.23;;;;;;;13.56;92.67;102384.25;5036744;28;20492;-73
2023/06/01 06:34:24;;;;;;;22.00;9.07;;;;;;;13.55;91.27;102385.31;5032740;28;20029;-74
2023/06/01 06:36:52;;;;;;;22.30;10.97;;;;;;;13.63;92.05;102384.41;5032886;28;20412;-73
2023/06/01 06:39:18;;;;;;;21.08;10.52;;;;;;;13.63;90.91;102387.16;5029481;28;20044;-73
2023/06/01 06:41:43;;;;;;;18.13;9.30;;;;;;;13.84;90.46;102387.41;5036833;28;20395;-73
2023/06/01 06:44:09;;;;;;;19.07;9.27;;;;;;;13.83;90.62;102389.28;5030704;28;20030;-73
2023/06/01 06:46:34;;;;;;;23.67;8.73;;;;;;;13.70;91.30;102386.28;5041097;28;20033;-73
2023/06/01 06:49:00;;;;;;;18.03;9.00;;;;;;;13.56;91.33;102394.44;5041369;28;20520;-74
2023/06/01 06:51:26;;;;;;;19.70;8.13;;;;;;;13.59;91.32;102389.44;5036325;28;20485;-73
2023/06/01 06:53:51;;;;;;;19.37;9.07;;;;;;;13.55;90.78;102387.22;5040850;28;20033;-74
2023/06/01 06:56:17;;;;;;;19.40;8.73;;;;;;;13.83;90.00;102394.78;5038007;28;20029;-74
2023/06/01 06:58:44;;;;;;;14.10;8.60;;;;;;;13.85;88.96;102395.50;5031859;28;20025;-73
2023/06/01 07:01:10;;;;;;;;;;;;;;;13.70;89.19;102396.41;5041805;28;20036;-74
2023/06/01 07:03:35;;;;;;;24.05;8.15;;;;;;;14.03;88.91;102398.81;5036681;28;20438;-74
2023/06/01 07:06:01;;;;;;;21.37;8.30;;;;;;;13.94;87.94;102404.56;5028071;28;20108;-73
2023/06/01 07:08:26;;;;;;;18.27;7.70;;;;;;;14.36;86.48;102405.84;5035995;28;20063;-74
2023/06/01 07:10:53;;;;;;;18.03;7.83;;;;;;;14.77;84.68;102412.75;5032934;28;20031;-74
2023/06/01 07:13:19;;;;;;;20.00;8.13;;;;;;;15.19;83.51;102406.63;5037205;28;20095;-73
2023/06/01 07:15:44;;;;;;;13.80;7.23;;;;;;;15.74;81.20;102404.28;5040018;28;20021;-73
2023/06/01 07:18:10;;;;;;;14.73;8.00;;;;;;;15.73;78.65;102410.81;5040700;28;20431;-74
2023/06/01 07:20:35;;;;;;;16.60;7.87;;;;;;;15.64;79.32;102412.00;5038096;28;20116;-73
2023/06/01 07:23:00;;;;;;;14.63;7.70;;;;;;;15.48;79.85;102414.97;5040351;28;20099;-72
2023/06/01 07:25:26;;;;;;;19.03;7.90;;;;;;;15.01;81.95;102409.78;5041972;28;20061;-74
2023/06/01 07:27:52;;;;;;;20.10;7.00;;;;;;;15.41;81.58;102398.28;5037050;28;20025;-73
2023/06/01 07:30:17;;;;;;;15.32;8.27;;;;;;;15.26;80.18;102402.91;5032017;28;20036;-73
2023/06/01 07:32:43;;;;;;;11.77;6.70;;;;;;;15.45;80.37;102404.28;5032388;28;20057;-73
2023/06/01 07:35:09;;;;;;;18.43;7.70;;;;;;;15.27;80.39;102399.09;5069823;28;20043;-73
2023/06/01 07:37:35;;;;;;;12.80;7.75;;;;;;;14.99;80.87;102411.84;5042791;28;20025;-73
2023/06/01 07:40:01;;;;;;;15.63;6.97;;;;;;;14.95;81.15;102406.91;5036660;28;20040;-72
2023/06/01 07:42:26;;;;;;;14.67;7.27;;;;;;;14.91;81.79;102409.19;5039533;28;20049;-73
2023/06/01 07:44:53;;;;;;;19.37;7.60;;;;;;;15.05;79.96;102413.84;5045908;28;20104;-73
2023/06/01 07:47:18;;;;;;;17.40;6.53;;;;;;;15.25;79.21;102411.38;5039537;28;20041;-73
2023/06/01 07:49:44;;;;;;;13.83;6.57;;;;;;;16.10;77.54;102410.66;5038060;28;20041;-73
2023/06/01 07:52:09;;;;;;;14.90;7.17;;;;;;;16.18;76.48;102410.56;5043544;28;20043;-73
2023/06/01 07:54:36;;;;;;;13.47;6.67;;;;;;;16.25;76.47;102417.00;5037578;28;20086;-73
2023/06/01 07:57:04;;;;;;;17.38;6.78;;;;;;;16.21;74.40;102422.06;5037501;28;20026;-72
2023/06/01 07:59:29;;;;;;;13.90;6.22;;;;;;;15.71;75.92;102415.69;5042346;28;20123;-74
2023/06/01 08:01:56;;;;;;;16.70;6.37;;;;;;;15.64;77.40;102423.88;5038503;28;20108;-73
2023/06/01 08:04:22;;;;;;;13.52;5.60;;;;;;;15.20;77.58;102423.00;5050620;28;20070;-73
2023/06/01 08:06:49;;;;;;;18.83;6.87;;;;;;;15.79;78.27;102412.84;5039259;28;20033;-74
2023/06/01 08:09:14;;;;;;;15.13;6.40;;;;;;;16.79;73.22;102418.22;5045265;28;20038;-74
2023/06/01 08:11:40;;;;;;;11.37;5.87;;;;;;;17.30;71.34;102405.84;5037417;28;20140;-74
2023/06/01 08:14:08;;;;;;;13.43;5.80;;;;;;;18.06;70.96;102405.63;5036549;28;20068;-73
2023/06/01 08:16:34;;;;;;;22.80;6.43;;;;;;;17.95;70.41;102401.53;5036194;28;20492;-73
2023/06/01 08:19:00;;;;;;;13.40;6.13;;;;;;;18.42;67.76;102401.47;5043800;28;20029;-74
2023/06/01 08:21:26;;;;;;;10.43;5.97;;;;;;;18.11;66.42;102405.84;5037966;28;20103;-74
2023/06/01 08:23:54;;;;;;;19.40;6.40;;;;;;;17.36;66.03;102405.91;5041094;28;20049;-74
2023/06/01 08:26:20;;;;;;;14.63;6.28;;;;;;;17.84;68.33;102404.91;5042738;28;20076;-74
2023/06/01 08:28:51;;;;;;;12.10;5.72;;;;;;;17.84;68.14;102399.38;5041722;28;20396;-73
2023/06/01 08:31:21;;;;;;;16.02;6.40;;;;;;;18.04;67.10;102391.09;5036823;28;20132;-73
2023/06/01 08:33:48;;;;;;;18.55;6.10;;;;;;;17.48;67.49;102397.88;5040032;28;20032;-72
2023/06/01 08:36:13;;;;;;;15.70;6.28;;;;;;;17.18;69.54;102404.72;5039473;28;20033;-73
2023/06/01 08:38:39;;;;;;;14.27;6.10;;;;;;;17.39;68.85;102408.28;5039512;28;20400;-73
2023/06/01 08:41:17;;;;;;;12.52;6.18;;;;;;;17.48;68.87;102397.88;5040584;28;20091;-73
2023/06/01 08:43:48;;;;;;;12.80;5.32;;;;;;;17.78;67.37;102404.88;5038832;28;20026;-71
2023/06/01 08:46:15;;;;;;;10.75;5.28;;;;;;;17.52;67.54;102407.50;5042625;28;20477;-72
2023/06/01 08:48:43;;;;;;;15.13;6.25;;;;;;;17.78;67.53;102399.31;5040296;28;20049;-71
2023/06/01 08:51:08;;;;;;;17.52;5.85;;;;;;;17.72;68.26;102397.38;5038967;28;20037;-71
2023/06/01 08:53:34;;;;;;;9.83;6.03;;;;;;;17.43;68.99;102398.50;5039587;28;20107;-71
2023/06/01 08:56:00;;;;;;;13.40;5.97;;;;;;;17.76;70.02;102407.00;5044125;28;20068;-72
2023/06/01 08:58:25;;;;;;;15.67;6.50;;;;;;;17.67;68.55;102394.38;5039604;28;20495;-72
2023/06/01 09:00:53;;;;;;;17.07;6.70;;;;;;;17.24;69.34;102401.97;5038453;28;20032;-71
2023/06/01 09:03:19;;;;;;;18.23;6.10;;;;;;;17.79;69.36;102389.94;5041759;28;20033;-72
2023/06/01 09:05:44;;;;;;;12.80;5.25;;;;;;;18.13;66.56;102387.06;5036447;28;20082;-71
2023/06/01 09:08:10;;;;;;;12.50;5.87;;;;;;;17.73;67.96;102379.69;5040054;28;20033;-71
2023/06/01 09:10:36;;;;;;;10.30;5.57;;;;;;;17.98;67.24;102383.63;5069147;28;20039;-72
2023/06/01 09:13:03;;;;;;;20.23;5.70;;;;;;;18.03;65.51;102381.09;5033578;28;20033;-72
2023/06/01 09:15:28;;;;;;;9.93;5.00;;;;;;;18.39;65.19;102376.94;5033634;28;20584;-72
2023/06/01 09:18:07;;;;;;;12.53;5.63;;;;;;;18.28;65.78;102384.97;5030794;28;20383;-71
2023/06/01 09:20:33;;;;;;;11.43;5.68;;;;;;;18.97;64.08;102381.66;5031903;28;20021;-72
2023/06/01 09:22:58;;;;;;;11.67;4.93;;;;;;;18.76;63.70;102384.66;5034103;28;20022;-70
2023/06/01 09:25:27;;;;;;;13.10;5.70;;;;;;;18.11;65.44;102383.66;5050686;28;20477;-72
2023/06/01 09:27:54;;;;;;;9.77;4.95;;;;;;;18.14;64.44;102377.72;5039983;28;20278;-71
2023/06/01 09:30:20;;;;;;;;;;;;;;;17.81;64.88;102387.81;5033600;28;20099;-72
2023/06/01 09:32:53;;;;;;;15.23;5.63;;;;;;;18.02;65.83;102369.13;5041315;28;19956;-72
2023/06/01 09:35:38;;;;;;;13.23;5.75;;;;;;;18.19;64.84;102380.72;5036991;28;20037;-72
2023/06/01 09:38:06;;;;;;;17.75;6.15;;;;;;;18.03;65.33;102370.81;5038309;28;20116;-72
2023/06/01 09:40:32;;;;;;;12.73;5.85;;;;;;;17.86;65.94;102363.94;5036833;28;20071;-72
2023/06/01 09:42:58;;;;;;;10.18;5.70;;;;;;;18.46;64.81;102382.50;5038688;28;20389;-71
2023/06/01 09:45:24;;;;;;;13.83;5.87;;;;;;;18.66;63.87;102369.47;5036038;28;20018;-72
2023/06/01 09:47:51;;;;;;;15.60;4.68;;;;;;;19.16;63.51;102372.44;5039891;28;20273;-71
2023/06/01 09:50:36;;;;;;;;;;;;;;;19.07;62.63;102368.19;5040843;28;20048;-72
2023/06/01 09:53:03;;;;;;;8.63;5.60;;;;;;;19.08;62.04;102366.25;5033334;28;19917;-72
2023/06/01 09:55:28;;;;;;;;;;;;;;;19.28;62.38;102369.88;5038612;28;20071;-72
2023/06/01 09:58:20;;;;;;;11.73;5.65;;;;;;;19.56;59.69;102384.34;5038776;28;20052;-73
2023/06/01 10:00:50;;;;;;;9.57;5.63;;;;;;;19.05;60.55;102372.25;5035491;28;20481;-71
2023/06/01 10:03:17;;;;;;;13.23;5.60;;;;;;;18.99;61.87;102373.13;5031321;28;20536;-72
2023/06/01 10:05:44;;;;;;;11.98;5.20;;;;;;;19.37;61.15;102360.25;5030894;28;20031;-72
2023/06/01 10:08:16;;;;;;;16.05;5.95;;;;;;;19.39;60.46;102363.66;5040357;28;20087;-71
2023/06/01 10:10:44;;;;;;;11.98;5.10;;;;;;;19.51;60.38;102367.47;5033594;28;20041;-71
2023/06/01 10:13:10;;;;;;;12.52;5.95;;;;;;;19.40;60.04;102360.66;5067728;28;20393;-72
2023/06/01 10:15:36;;;;;;;;;;;;;;;19.25;61.35;102361.97;5037930;28;20037;-72
2023/06/01 10:18:04;;;;;;;13.85;5.75;;;;;;;19.26;61.37;102353.41;5033679;28;20300;-71
2023/06/01 10:20:33;;;;;;;10.93;5.55;;;;;;;19.45;60.42;102354.44;5038334;28;21198;-72
2023/06/01 10:23:00;;;;;;;12.70;6.63;;;;;;;19.37;60.18;102355.53;5033426;28;20040;-72
2023/06/01 10:25:30;;;;;;;11.68;6.32;;;;;;;19.23;60.97;102358.56;5040201;28;20049;-72
2023/06/01 10:28:01;;;;;;;10.20;6.05;;;;;;;19.21;60.81;102355.13;5041162;28;20543;-71
2023/06/01 10:30:27;;;;;;;13.90;6.25;;;;;;;19.56;59.65;102356.53;5037852;28;20345;-72
2023/06/01 10:32:54;;;;;;;13.30;6.27;;;;;;;19.75;59.19;102362.00;5039002;28;20033;-71
2023/06/01 10:35:28;;;;;;;13.85;6.82;;;;;;;19.21;59.97;102361.56;5033851;28;20036;-71
2023/06/01 10:38:06;;;;;;;9.75;6.53;;;;;;;19.21;59.89;102356.00;5037927;28;20021;-71
2023/06/01 10:40:34;;;;;;;13.50;6.40;;;;;;;19.35;58.94;102346.56;5037763;28;20025;-71
2023/06/01 10:42:59;;;;;;;9.80;6.25;;;;;;;19.66;58.39;102343.91;5035043;28;20043;-71
2023/06/01 10:45:34;;;;;;;11.77;6.00;;;;;;;20.17;58.97;102368.91;5038015;28;20022;-71
2023/06/01 10:48:01;;;;;;;13.63;6.95;;;;;;;19.90;58.64;102358.97;5046935;28;20017;-72
2023/06/01 10:50:26;;;;;;;;;;;;;;;20.45;56.23;102355.44;5044521;28;20052;-72
2023/06/01 10:52:54;;;;;;;12.75;5.55;;;;;;;20.62;54.84;102362.16;5039961;28;19917;-72
2023/06/01 10:55:22;;;;;;;12.50;6.88;;;;;;;20.50;55.86;102358.41;5045669;28;20032;-71
2023/06/01 10:57:48;;;;;;;13.02;6.13;;;;;;;20.11;56.61;102355.91;5040923;28;20119;-71
2023/06/01 11:00:14;;;;;;;16.73;6.63;;;;;;;20.52;55.94;102348.75;5040689;28;20104;-71
2023/06/01 11:02:50;;;;;;;12.57;6.15;;;;;;;20.72;56.02;102348.59;5040762;28;20121;-71
2023/06/01 11:05:41;;;;;;;13.70;7.22;;;;;;;20.81;54.63;102345.28;5039061;28;20103;-72
2023/06/01 11:08:30;;;;;;;14.98;6.97;;;;;;;20.42;55.44;102344.75;5040718;28;20036;-70
2023/06/01 11:11:00;;;;;;;10.88;7.03;;;;;;;20.31;56.20;102345.47;5039942;28;20034;-71
2023/06/01 11:13:31;;;;;;;10.57;6.30;;;;;;;20.29;56.71;102347.63;5042002;28;20029;-71
2023/06/01 11:16:22;;;;;;;10.35;6.75;;;;;;;20.43;55.79;102346.47;5046703;28;20119;-70